Time;durP1;ratioP1;P1;durP2;ratioP2;P2;SDS_P1;SDS_P2;PMS_P1;PMS_P2;Temp;Humidity;BMP_temperature;BMP_pressure;BME280_temperature;BME280_humidity;BME280_pressure;Samples;Min_cycle;Max_cycle;Signal;HPM_P1;HPM_P2
2022/12/07 00:01:39;;;;;;;1.85;1.60;;;;;;;19.94;38.16;101610.28;5033058;28;20033;-66
2022/12/07 00:04:07;;;;;;;3.58;1.63;;;;;;;19.86;38.19;101608.41;5033720;28;20045;-66
2022/12/07 00:06:43;;;;;;;2.55;1.50;;;;;;;19.85;38.18;101605.94;5035634;28;20690;-66
2022/12/07 00:09:16;;;;;;;2.10;1.50;;;;;;;19.89;38.19;101610.72;5031091;28;20048;-66
2022/12/07 00:11:42;;;;;;;2.38;1.60;;;;;;;19.78;38.40;101597.00;5032308;28;20033;-66
2022/12/07 00:14:12;;;;;;;2.10;1.77;;;;;;;19.84;38.17;101605.09;5032500;28;20114;-66
2022/12/07 00:16:37;;;;;;;2.42;1.33;;;;;;;19.80;38.17;101598.50;5032076;28;20946;-66
2022/12/07 00:19:04;;;;;;;3.05;1.63;;;;;;;19.94;38.09;101610.28;5033371;28;20036;-66
2022/12/07 00:21:34;;;;;;;2.45;1.52;;;;;;;19.88;38.17;101605.59;5030263;28;21845;-66
2022/12/07 00:24:01;;;;;;;1.80;1.35;;;;;;;19.93;38.11;101611.25;5034324;28;20711;-66
2022/12/07 00:26:30;;;;;;;4.32;1.92;;;;;;;19.87;38.29;101607.41;5032860;28;20122;-66
2022/12/07 00:29:02;;;;;;;1.95;1.50;;;;;;;19.90;38.13;101612.38;5037376;28;20047;-66
2022/12/07 00:31:30;;;;;;;2.35;1.67;;;;;;;19.92;38.27;101606.94;5032288;28;20033;-66
2022/12/07 00:33:57;;;;;;;2.42;1.77;;;;;;;19.81;38.36;101596.69;5035945;28;20051;-66
2022/12/07 00:36:24;;;;;;;2.03;1.50;;;;;;;19.87;38.12;101602.13;5029398;28;20513;-66
2022/12/07 00:38:49;;;;;;;2.45;1.90;;;;;;;19.83;38.30;101589.41;5029090;28;20797;-66
2022/12/07 00:41:18;;;;;;;2.03;1.30;;;;;;;19.85;38.19;101590.91;5037642;28;20044;-66
2022/12/07 00:43:45;;;;;;;2.30;1.50;;;;;;;19.79;38.24;101580.16;5039915;28;20108;-66
2022/12/07 00:46:11;;;;;;;2.72;1.52;;;;;;;19.92;38.21;101583.97;5032724;28;20499;-66
2022/12/07 00:48:37;;;;;;;2.65;1.80;;;;;;;19.88;38.13;101587.94;5034790;28;20044;-66
2022/12/07 00:51:03;;;;;;;2.97;1.63;;;;;;;19.85;38.31;101584.78;5031954;28;20037;-66
2022/12/07 00:53:29;;;;;;;2.10;1.60;;;;;;;19.82;38.28;101571.91;5029646;28;20467;-66
2022/12/07 00:55:55;;;;;;;2.58;1.20;;;;;;;19.93;38.13;101582.19;5035292;28;20032;-66
2022/12/07 00:58:22;;;;;;;1.67;1.13;;;;;;;19.96;38.08;101581.84;5028713;28;20534;-66
2022/12/07 01:00:47;;;;;;;2.10;1.60;;;;;;;19.95;38.13;101579.38;5035674;28;20041;-66
2022/12/07 01:03:14;;;;;;;2.75;1.50;;;;;;;19.86;38.33;101581.97;5030329;28;20041;-66
2022/12/07 01:05:48;;;;;;;2.72;1.65;;;;;;;19.89;38.17;101581.66;5034527;28;20526;-66
2022/12/07 01:08:14;;;;;;;3.72;1.77;;;;;;;19.88;38.16;101580.00;5033320;28;20051;-66
2022/12/07 01:10:39;;;;;;;2.70;1.60;;;;;;;19.90;38.20;101582.47;5030917;28;20032;-66
2022/12/07 01:13:04;;;;;;;3.15;1.50;;;;;;;19.88;38.21;101577.34;5034820;28;20048;-66
2022/12/07 01:15:30;;;;;;;1.85;1.63;;;;;;;19.85;38.40;101571.56;5029447;28;20056;-66
2022/12/07 01:17:56;;;;;;;3.38;1.65;;;;;;;19.93;38.28;101582.19;5023162;28;20047;-66
2022/12/07 01:20:21;;;;;;;1.80;1.20;;;;;;;19.89;38.15;101580.81;5029776;28;20029;-66
2022/12/07 01:22:47;;;;;;;2.88;1.67;;;;;;;19.88;38.20;101577.34;5033858;28;20032;-66
2022/12/07 01:25:13;;;;;;;3.50;1.50;;;;;;;19.97;38.15;101580.03;5027447;28;20067;-66
2022/12/07 01:27:38;;;;;;;2.33;1.40;;;;;;;19.92;38.22;101585.78;5019305;28;20052;-66
2022/12/07 01:30:06;;;;;;;2.65;1.38;;;;;;;19.87;38.27;101580.16;5019335;28;20067;-66
2022/12/07 01:32:33;;;;;;;2.25;1.58;;;;;;;19.86;38.32;101589.91;5030372;28;21662;-66
2022/12/07 01:34:58;;;;;;;2.63;1.40;;;;;;;19.90;38.31;101585.94;5035472;28;20041;-66
2022/12/07 01:37:24;;;;;;;3.17;1.77;;;;;;;19.90;38.24;101585.13;5030558;28;20094;-66
2022/12/07 01:39:52;;;;;;;2.53;1.20;;;;;;;19.85;38.34;101584.78;5033096;28;20795;-66
2022/12/07 01:42:18;;;;;;;1.52;1.30;;;;;;;19.90;38.25;101580.66;5025978;28;20037;-66
2022/12/07 01:45:17;;;;;;;1.83;1.35;;;;;;;19.86;38.34;101591.72;5031881;28;20033;-66
2022/12/07 01:47:51;;;;;;;3.15;1.55;;;;;;;19.87;38.32;101594.22;5033701;28;20068;-66
2022/12/07 01:50:18;;;;;;;3.50;1.80;;;;;;;19.87;38.27;101591.56;5025243;28;20044;-66
2022/12/07 01:52:48;;;;;;;3.15;1.60;;;;;;;19.90;38.27;101600.97;5032454;28;20098;-66
2022/12/07 01:55:15;;;;;;;2.28;1.50;;;;;;;19.90;38.19;101596.53;5023671;28;20056;-66
2022/12/07 01:57:45;;;;;;;2.13;1.05;;;;;;;19.90;38.23;101590.41;5034740;28;20103;-66
2022/12/07 02:00:11;;;;;;;1.35;1.08;;;;;;;19.90;38.18;101588.59;5032891;28;20499;-66
2022/12/07 02:02:55;;;;;;;2.45;1.20;;;;;;;19.89;38.31;101596.69;5033311;28;20896;-66
2022/12/07 02:05:22;;;;;;;3.00;1.13;;;;;;;19.87;38.28;101601.31;5029462;28;20092;-66
2022/12/07 02:07:50;;;;;;;1.58;1.05;;;;;;;19.92;38.26;101599.00;5037599;28;20117;-66
2022/12/07 02:10:21;;;;;;;1.75;1.05;;;;;;;19.92;38.17;101605.13;5032380;28;20550;-66
2022/12/07 02:12:50;;;;;;;2.20;1.10;;;;;;;19.84;38.43;101585.78;5039606;28;20037;-66
2022/12/07 02:15:18;;;;;;;1.85;1.10;;;;;;;19.89;38.25;101586.94;5030896;28;20104;-66
2022/12/07 02:18:16;;;;;;;2.08;1.40;;;;;;;20.04;38.05;101588.97;5034447;28;20483;-66
2022/12/07 02:21:02;;;;;;;2.38;1.10;;;;;;;20.36;37.45;101581.06;5020125;28;20049;-66
2022/12/07 02:23:39;;;;;;;2.28;1.40;;;;;;;20.92;36.60;101581.22;5030947;28;20525;-66
2022/12/07 02:26:20;;;;;;;1.40;1.13;;;;;;;21.05;36.53;101576.22;5027886;28;20037;-66
2022/12/07 02:29:12;;;;;;;2.03;1.27;;;;;;;21.00;36.43;101574.06;5032489;28;20044;-66
2022/12/07 02:31:46;;;;;;;1.42;0.88;;;;;;;20.94;36.57;101573.94;5028617;28;20048;-66
2022/12/07 02:34:41;;;;;;;0.68;0.60;;;;;;;20.87;36.87;101568.50;5032851;28;20049;-66
2022/12/07 02:37:21;;;;;;;2.38;1.20;;;;;;;20.87;36.78;101565.84;5030083;28;20742;-65
2022/12/07 02:39:55;;;;;;;1.92;1.35;;;;;;;20.80;36.92;101555.09;5037079;28;20053;-66
2022/12/07 02:42:31;;;;;;;1.55;1.00;;;;;;;20.72;37.05;101556.94;5033035;28;20539;-65
2022/12/07 02:44:59;;;;;;;1.80;0.98;;;;;;;20.68;37.18;101561.75;5034198;28;20072;-66
2022/12/07 02:47:26;;;;;;;1.50;0.88;;;;;;;20.68;37.16;101564.38;5038506;28;20049;-65
2022/12/07 02:49:52;;;;;;;1.90;1.08;;;;;;;20.65;37.09;101566.53;5032137;28;20102;-66
2022/12/07 02:52:17;;;;;;;2.88;1.20;;;;;;;20.57;37.22;101559.44;5034897;28;20021;-66
2022/12/07 02:54:43;;;;;;;2.75;1.02;;;;;;;20.59;37.36;101562.72;5030214;28;20530;-66
2022/12/07 02:57:17;;;;;;;1.38;0.80;;;;;;;20.60;37.22;101568.84;5036124;28;20052;-66
2022/12/07 03:00:01;;;;;;;1.20;1.00;;;;;;;20.57;37.36;101558.59;5032819;28;20045;-66
2022/12/07 03:02:57;;;;;;;2.35;1.30;;;;;;;20.58;37.44;101550.50;5036242;28;20475;-66
2022/12/07 03:05:41;;;;;;;0.68;0.57;;;;;;;20.48;37.63;101548.03;5039115;28;20053;-65
2022/12/07 03:08:38;;;;;;;1.30;1.13;;;;;;;20.48;37.49;101545.41;5030338;28;20813;-65
2022/12/07 03:11:14;;;;;;;1.85;0.73;;;;;;;20.42;37.56;101547.84;5038069;28;20120;-66
2022/12/07 03:13:49;;;;;;;1.05;0.80;;;;;;;20.48;37.48;101555.97;5032368;28;20038;-66
2022/12/07 03:16:45;;;;;;;0.90;0.80;;;;;;;20.44;37.57;101546.69;5030703;28;20056;-65
2022/12/07 03:19:16;;;;;;;1.08;0.80;;;;;;;20.44;37.61;101551.16;5022083;28;20056;-65
2022/12/07 03:21:56;;;;;;;1.83;0.95;;;;;;;20.43;37.33;101542.41;5032004;28;20052;-66
2022/12/07 03:24:29;;;;;;;1.83;0.80;;;;;;;20.42;37.49;101540.75;5033705;28;20044;-65
2022/12/07 03:27:13;;;;;;;1.27;0.82;;;;;;;20.40;37.44;101542.69;5047416;28;20029;-65
2022/12/07 03:29:45;;;;;;;1.30;0.90;;;;;;;20.34;37.44;101531.97;5036985;28;20114;-66
2022/12/07 03:32:21;;;;;;;1.38;0.80;;;;;;;20.39;37.50;101535.75;5030839;28;20390;-65
2022/12/07 03:34:56;;;;;;;2.08;0.98;;;;;;;20.35;37.53;101534.44;5033851;28;20040;-66
2022/12/07 03:37:33;;;;;;;2.78;1.23;;;;;;;20.31;37.62;101543.72;5029277;28;20122;-65
2022/12/07 03:40:37;;;;;;;3.05;0.95;;;;;;;20.36;37.36;101554.63;5027650;28;20423;-66
2022/12/07 03:43:04;;;;;;;1.45;0.77;;;;;;;20.28;37.64;101559.88;5030101;28;20035;-65
2022/12/07 03:46:11;;;;;;;1.80;0.90;;;;;;;20.30;37.62;101575.63;5035945;28;20069;-66
2022/12/07 03:48:55;;;;;;;2.30;1.48;;;;;;;20.27;37.58;101544.19;5033597;28;20443;-66
2022/12/07 03:51:37;;;;;;;2.67;1.05;;;;;;;20.25;37.63;101544.34;5032559;28;20048;-66
2022/12/07 03:54:09;;;;;;;1.23;0.80;;;;;;;20.25;37.77;101560.22;5029734;28;20491;-66
2022/12/07 03:56:35;;;;;;;1.88;0.90;;;;;;;20.29;37.52;101556.28;5034819;28;20041;-66
2022/12/07 03:59:01;;;;;;;1.65;0.65;;;;;;;20.27;37.71;101552.94;5036251;28;20056;-65
2022/12/07 04:01:27;;;;;;;1.63;0.77;;;;;;;20.27;37.49;101546.81;5034903;28;20036;-65
2022/12/07 04:03:52;;;;;;;0.90;0.50;;;;;;;20.25;37.72;101559.41;5034867;28;20052;-65
2022/12/07 04:06:18;;;;;;;1.45;0.75;;;;;;;20.22;37.54;101557.91;5030386;28;20403;-66
2022/12/07 04:08:44;;;;;;;1.60;0.60;;;;;;;20.23;37.54;101548.97;5033163;28;20101;-66
2022/12/07 04:11:09;;;;;;;0.73;0.73;;;;;;;20.19;37.57;101548.50;5031070;28;20032;-66
2022/12/07 04:14:18;;;;;;;1.10;0.68;;;;;;;20.18;37.64;101544.19;5035551;28;20040;-66
2022/12/07 04:16:20;;;;;;;2.58;0.82;;;;;;;20.18;37.50;101543.38;5036179;28;20458;-66
2022/12/07 04:18:46;;;;;;;1.60;0.85;;;;;;;20.20;37.56;101538.75;5030358;28;20045;-65
2022/12/07 04:21:11;;;;;;;1.15;0.50;;;;;;;20.12;37.66;101531.63;5034016;28;20057;-65
2022/12/07 04:23:37;;;;;;;1.13;0.77;;;;;;;20.16;37.51;101535.59;5032896;28;20036;-66
2022/12/07 04:26:02;;;;;;;1.35;0.80;;;;;;;20.12;37.60;101531.63;5033864;28;20041;-66
2022/12/07 04:28:28;;;;;;;0.90;0.70;;;;;;;20.06;37.87;101534.09;5038200;28;20043;-66
2022/12/07 04:30:53;;;;;;;1.27;0.68;;;;;;;20.05;37.79;101537.72;5032581;28;20509;-65
2022/12/07 04:33:18;;;;;;;1.10;0.60;;;;;;;20.06;37.68;101527.00;5033074;28;20045;-65
2022/12/07 04:35:44;;;;;;;0.55;0.55;;;;;;;20.03;37.75;101540.53;5032754;28;20407;-66
2022/12/07 04:38:09;;;;;;;3.55;1.02;;;;;;;20.07;38.35;101536.56;5035544;28;20048;-65
2022/12/07 04:40:35;;;;;;;2.17;0.75;;;;;;;20.13;37.63;101524.53;5032765;28;20044;-65
2022/12/07 04:43:00;;;;;;;2.67;0.60;;;;;;;19.97;37.69;101519.22;5027025;28;20052;-65
2022/12/07 04:45:26;;;;;;;0.82;0.70;;;;;;;20.04;37.81;101526.34;5030566;28;20045;-65
2022/12/07 04:47:51;;;;;;;1.00;0.68;;;;;;;20.08;37.59;101535.59;5029196;28;20455;-65
2022/12/07 04:50:17;;;;;;;1.30;0.70;;;;;;;20.06;37.68;101534.09;5033853;28;20045;-65
2022/12/07 04:52:43;;;;;;;0.77;0.70;;;;;;;19.96;37.76;101528.97;5033833;28;20170;-65
2022/12/07 04:55:08;;;;;;;1.02;0.68;;;;;;;19.98;37.77;101536.75;5029274;28;20052;-65
2022/12/07 04:57:34;;;;;;;1.90;0.88;;;;;;;20.07;37.60;101541.03;5027758;28;20052;-65
2022/12/07 04:59:59;;;;;;;1.30;0.70;;;;;;;20.00;37.73;101542.69;5037984;28;20048;-65
2022/12/07 05:02:25;;;;;;;0.90;0.75;;;;;;;20.00;37.59;101543.53;5034938;28;20044;-65
2022/12/07 05:04:50;;;;;;;1.67;0.77;;;;;;;20.09;37.40;101526.66;5029792;28;20064;-65
2022/12/07 05:07:16;;;;;;;1.80;0.65;;;;;;;19.96;37.54;101514.94;5039960;28;20664;-65
2022/12/07 05:09:41;;;;;;;1.20;0.55;;;;;;;19.97;37.71;101529.81;5040088;28;20039;-65
2022/12/07 05:12:07;;;;;;;1.13;0.82;;;;;;;19.99;37.68;101525.19;5039278;28;20044;-65
2022/12/07 05:14:32;;;;;;;1.52;0.50;;;;;;;19.95;37.58;101529.16;5036267;28;20045;-65
2022/12/07 05:16:58;;;;;;;1.60;0.95;;;;;;;19.98;37.73;101521.72;5049567;28;20052;-65
2022/12/07 05:19:23;;;;;;;1.23;0.60;;;;;;;19.88;37.75;101526.31;5037339;28;20033;-65
2022/12/07 05:21:49;;;;;;;1.75;0.77;;;;;;;19.94;37.74;101527.50;5042501;28;20045;-65
2022/12/07 05:24:16;;;;;;;1.35;0.60;;;;;;;19.90;37.56;101527.78;5031952;28;20084;-65
2022/12/07 05:26:42;;;;;;;1.02;0.52;;;;;;;19.89;37.86;101526.16;5032083;28;20149;-65
2022/12/07 05:29:10;;;;;;;0.80;0.70;;;;;;;19.85;37.83;101529.28;5031955;28;20394;-65
2022/12/07 05:31:35;;;;;;;2.17;0.90;;;;;;;19.80;37.93;101524.50;5036281;28;20064;-65
2022/12/07 05:34:01;;;;;;;2.03;0.77;;;;;;;19.88;37.80;101523.66;5025761;28;20060;-65
2022/12/07 05:36:28;;;;;;;0.52;0.43;;;;;;;19.96;37.58;101520.22;5030687;28;20076;-65
2022/12/07 05:38:54;;;;;;;0.45;0.45;;;;;;;19.75;37.63;101510.94;5037205;28;20492;-65
2022/12/07 05:44:04;;;;;;;0.60;0.60;;;;;;;19.95;37.63;101521.22;5038528;28;20044;-65
2022/12/07 05:46:30;;;;;;;1.38;0.60;;;;;;;19.88;37.72;101513.09;5031170;28;20517;-65
2022/12/07 05:48:56;;;;;;;1.42;0.57;;;;;;;19.85;37.87;101505.50;5032523;28;20037;-65
2022/12/07 05:51:21;;;;;;;0.57;0.57;;;;;;;19.80;37.99;101511.28;5033647;28;20037;-65
2022/12/07 05:53:47;;;;;;;1.02;0.50;;;;;;;19.83;37.92;101512.75;5036631;28;20079;-65
2022/12/07 05:56:12;;;;;;;2.22;0.77;;;;;;;19.90;37.78;101516.41;5030871;28;20033;-65
2022/12/07 06:01:22;;;;;;;0.80;0.63;;;;;;;19.96;37.61;101509.66;5036634;28;20116;-66
2022/12/07 06:03:48;;;;;;;2.08;0.70;;;;;;;19.82;37.90;101505.81;5040323;28;20518;-65
2022/12/07 06:06:13;;;;;;;0.93;0.50;;;;;;;19.98;37.71;101511.13;5031005;28;20122;-65
2022/12/07 06:08:39;;;;;;;2.45;0.95;;;;;;;20.25;37.47;101502.03;5034969;28;20049;-65
2022/12/07 06:13:49;;;;;;;2.13;0.93;;;;;;;21.04;36.25;101501.25;5035220;28;20141;-65
2022/12/07 06:16:14;;;;;;;0.70;0.40;;;;;;;21.03;36.26;101496.13;5031258;28;20689;-65
2022/12/07 06:18:40;;;;;;;2.13;0.77;;;;;;;21.00;36.34;101497.28;5031056;28;20045;-65
2022/12/07 06:21:05;;;;;;;0.95;0.40;;;;;;;20.91;36.42;101498.31;5027943;28;20044;-65
2022/12/07 06:23:31;;;;;;;0.63;0.30;;;;;;;20.91;36.56;101503.63;5030946;28;20048;-65
2022/12/07 06:25:56;;;;;;;0.63;0.40;;;;;;;20.79;36.67;101504.97;5031155;28;20032;-65
2022/12/07 06:28:22;;;;;;;1.55;0.50;;;;;;;20.77;36.87;101522.84;5029036;28;20104;-65
2022/12/07 06:30:47;;;;;;;1.95;0.65;;;;;;;20.79;36.89;101519.03;5033825;28;20092;-65
2022/12/07 06:33:13;;;;;;;0.50;0.30;;;;;;;20.72;36.80;101526.00;5027175;28;20034;-65
2022/12/07 06:35:38;;;;;;;0.50;0.28;;;;;;;20.72;37.10;101519.88;5030005;28;20049;-65
2022/12/07 06:38:04;;;;;;;1.77;0.50;;;;;;;20.67;37.12;101512.47;5031292;28;20041;-65
2022/12/07 06:40:29;;;;;;;0.90;0.52;;;;;;;20.59;37.23;101507.16;5026948;28;20497;-65
2022/12/07 06:42:54;;;;;;;0.75;0.28;;;;;;;20.63;37.06;101519.06;5034056;28;20033;-65
2022/12/07 06:45:20;;;;;;;0.70;0.60;;;;;;;20.57;37.39;101511.78;5030115;28;20479;-65
2022/12/07 06:47:45;;;;;;;1.17;0.68;;;;;;;20.59;37.08;101516.91;5032361;28;20036;-65
2022/12/07 06:50:11;;;;;;;1.80;0.65;;;;;;;20.59;37.38;101515.09;5031974;28;20045;-65
2022/12/07 06:52:37;;;;;;;0.88;0.52;;;;;;;20.50;37.43;101505.53;5025251;28;20134;-66
2022/12/07 06:55:03;;;;;;;2.58;0.50;;;;;;;20.55;37.43;101508.50;5028381;28;20045;-65
2022/12/07 06:57:28;;;;;;;1.48;0.65;;;;;;;20.50;37.37;101509.00;5032010;28;20036;-65
2022/12/07 06:59:54;;;;;;;1.92;1.08;;;;;;;20.47;37.45;101501.41;5029012;28;20104;-65
2022/12/07 07:02:19;;;;;;;1.10;0.52;;;;;;;20.44;37.69;101509.66;5027275;28;20682;-65
2022/12/07 07:04:45;;;;;;;0.50;0.50;;;;;;;20.47;37.47;101513.81;5027582;28;20045;-65
2022/12/07 07:07:10;;;;;;;0.82;0.55;;;;;;;20.42;37.56;101503.72;5032365;28;20091;-65
2022/12/07 07:09:36;;;;;;;0.85;0.40;;;;;;;20.37;37.70;101513.94;5029799;28;20795;-65
2022/12/07 07:12:01;;;;;;;1.80;0.95;;;;;;;20.43;37.38;101521.22;5032346;28;20095;-65
2022/12/07 07:14:27;;;;;;;1.30;0.50;;;;;;;20.39;37.57;101519.88;5025274;28;21659;-65
2022/12/07 07:16:52;;;;;;;1.35;0.65;;;;;;;20.46;37.27;101517.41;5026285;28;20041;-65
2022/12/07 07:19:18;;;;;;;0.30;0.30;;;;;;;20.32;37.54;101518.91;5039257;28;20106;-65
2022/12/07 07:21:43;;;;;;;0.95;0.70;;;;;;;20.35;37.68;101526.50;5031813;28;20043;-65
2022/12/07 07:24:09;;;;;;;2.67;0.88;;;;;;;20.39;37.69;101542.88;5036306;28;20372;-65
2022/12/07 07:26:34;;;;;;;1.23;0.80;;;;;;;20.39;37.68;101548.16;5035551;28;20922;-65
2022/12/07 07:29:00;;;;;;;1.00;0.40;;;;;;;20.32;37.76;101565.69;5032393;28;20482;-65
2022/12/07 07:31:25;;;;;;;0.50;0.45;;;;;;;20.33;37.62;101568.19;5034684;28;20037;-65
2022/12/07 07:33:51;;;;;;;2.05;0.70;;;;;;;20.32;37.83;101566.53;5032363;28;20041;-65
2022/12/07 07:36:17;;;;;;;0.95;0.43;;;;;;;20.32;37.56;101563.06;5036686;28;20044;-65
2022/12/07 07:38:42;;;;;;;1.00;0.50;;;;;;;20.25;37.75;101557.56;5035833;28;20076;-65
2022/12/07 07:41:08;;;;;;;1.45;0.50;;;;;;;20.32;37.57;101549.81;5034341;28;21754;-65
2022/12/07 07:43:33;;;;;;;1.70;0.80;;;;;;;20.32;37.47;101550.66;5031207;28;20030;-65
2022/12/07 07:45:59;;;;;;;0.70;0.50;;;;;;;20.33;37.55;101546.19;5035918;28;20499;-65
2022/12/07 07:48:25;;;;;;;1.13;0.40;;;;;;;20.26;37.82;101539.88;5033446;28;20048;-65
2022/12/07 07:50:51;;;;;;;0.88;0.38;;;;;;;20.27;37.76;101537.06;5030775;28;20111;-65
2022/12/07 07:53:16;;;;;;;1.38;0.68;;;;;;;20.25;37.76;101543.53;5029469;28;20045;-65
2022/12/07 07:55:50;;;;;;;1.63;0.55;;;;;;;20.25;37.81;101539.06;5035446;28;20098;-65
2022/12/07 07:58:16;;;;;;;2.28;0.60;;;;;;;20.26;37.71;101534.59;5025987;28;20797;-65
2022/12/07 08:00:41;;;;;;;2.30;0.80;;;;;;;20.20;37.70;101536.91;5039191;28;20033;-65
2022/12/07 08:03:07;;;;;;;0.77;0.40;;;;;;;20.24;37.61;101540.06;5040990;28;21773;-65
2022/12/07 08:05:32;;;;;;;0.85;0.65;;;;;;;20.23;37.75;101535.75;5037035;28;20064;-65
2022/12/07 08:07:58;;;;;;;0.82;0.68;;;;;;;20.16;37.90;101526.84;5040921;28;20570;-65
2022/12/07 08:10:23;;;;;;;0.82;0.73;;;;;;;20.13;37.96;101529.81;5032368;28;20033;-65
2022/12/07 08:15:33;;;;;;;0.85;0.52;;;;;;;20.24;37.74;101537.41;5030319;28;20046;-65
2022/12/07 08:17:58;;;;;;;1.05;0.60;;;;;;;20.17;37.86;101541.72;5034976;28;20025;-65
2022/12/07 08:20:24;;;;;;;1.95;0.73;;;;;;;20.17;37.84;101544.38;5041713;28;20040;-65
2022/12/07 08:22:49;;;;;;;1.15;0.60;;;;;;;20.15;37.67;101535.78;5036386;28;20064;-65
2022/12/07 08:25:15;;;;;;;1.20;0.60;;;;;;;20.15;37.81;101543.69;5032016;28;20041;-65
2022/12/07 08:27:41;;;;;;;1.05;0.55;;;;;;;20.18;37.69;101532.78;5030353;28;20029;-65
2022/12/07 08:30:07;;;;;;;0.95;0.50;;;;;;;20.15;37.77;101528.66;5033137;28;20045;-65
2022/12/07 08:32:32;;;;;;;1.85;0.93;;;;;;;20.15;37.82;101527.84;5030783;28;20032;-65
2022/12/07 08:34:58;;;;;;;0.88;0.50;;;;;;;20.13;37.76;101519.25;5029865;28;20044;-65
2022/12/07 08:37:23;;;;;;;2.10;0.63;;;;;;;20.16;37.89;101525.03;5033773;28;20806;-65
2022/12/07 08:39:49;;;;;;;0.88;0.60;;;;;;;20.10;38.08;101535.41;5031362;28;20083;-66
2022/12/07 08:42:14;;;;;;;1.67;0.85;;;;;;;20.09;37.96;101534.59;5031754;28;20813;-67
2022/12/07 08:44:40;;;;;;;2.33;0.82;;;;;;;20.12;37.74;101531.63;5031053;28;20044;-66
2022/12/07 08:47:07;;;;;;;1.63;0.73;;;;;;;20.07;37.90;101535.75;5032662;28;20041;-66
2022/12/07 08:49:38;;;;;;;2.17;0.68;;;;;;;20.08;37.87;101527.66;5034548;28;20045;-66
2022/12/07 08:52:05;;;;;;;1.85;0.70;;;;;;;20.09;37.90;101531.94;5026445;28;20041;-65
2022/12/07 08:54:35;;;;;;;1.65;0.85;;;;;;;20.07;38.18;101543.69;5031234;28;20080;-65
2022/12/07 08:57:01;;;;;;;3.88;0.75;;;;;;;20.13;37.96;101554.44;5036629;28;20176;-65
2022/12/07 08:59:27;;;;;;;0.98;0.75;;;;;;;20.10;38.05;101554.75;5033558;28;20025;-65
2022/12/07 09:01:53;;;;;;;1.50;0.80;;;;;;;20.09;37.94;101557.56;5031775;28;20044;-66
2022/12/07 09:04:18;;;;;;;1.02;0.50;;;;;;;20.12;37.85;101565.19;5030956;28;20764;-66
2022/12/07 09:06:44;;;;;;;1.95;0.82;;;;;;;20.09;38.05;101554.91;5033283;28;20040;-65
2022/12/07 09:09:12;;;;;;;1.33;0.82;;;;;;;20.07;37.95;101552.44;5029649;28;20040;-66
2022/12/07 09:11:39;;;;;;;0.70;0.50;;;;;;;20.12;38.03;101550.16;5036897;28;20028;-66
2022/12/07 09:14:05;;;;;;;1.23;1.00;;;;;;;20.07;38.09;101547.16;5028277;28;20480;-65
2022/12/07 09:16:31;;;;;;;1.60;0.90;;;;;;;20.12;37.99;101547.50;5038556;28;20391;-64
2022/12/07 09:18:56;;;;;;;1.65;1.08;;;;;;;19.94;38.24;101552.13;5033818;28;20033;-64
2022/12/07 09:21:22;;;;;;;1.65;1.02;;;;;;;20.08;38.14;101547.97;5036603;28;20522;-65
2022/12/07 09:23:47;;;;;;;2.65;1.20;;;;;;;20.02;38.16;101543.34;5032618;28;20040;-64
2022/12/07 09:26:13;;;;;;;2.80;1.05;;;;;;;20.01;38.20;101539.06;5032255;28;20045;-65
2022/12/07 09:28:38;;;;;;;1.52;0.80;;;;;;;20.07;38.12;101541.03;5034002;28;20040;-64
2022/12/07 09:31:04;;;;;;;2.20;0.82;;;;;;;20.11;37.96;101545.03;5031237;28;20044;-65
2022/12/07 09:33:30;;;;;;;2.25;0.93;;;;;;;20.12;38.03;101552.78;5030452;28;20048;-64
2022/12/07 09:35:55;;;;;;;1.75;1.00;;;;;;;20.07;38.08;101541.88;5031750;28;20036;-64
2022/12/07 09:38:21;;;;;;;1.67;0.90;;;;;;;20.05;38.16;101541.19;5028012;28;20041;-64
2022/12/07 09:40:47;;;;;;;1.65;0.93;;;;;;;20.07;38.07;101541.88;5028885;28;21607;-63
2022/12/07 09:43:22;;;;;;;1.27;1.00;;;;;;;20.05;38.01;101543.84;5035457;28;20037;-64
2022/12/07 09:45:54;;;;;;;1.48;0.93;;;;;;;20.03;38.13;101548.47;5034515;28;20429;-64
2022/12/07 09:48:25;;;;;;;0.88;0.77;;;;;;;20.03;38.13;101542.38;5032087;28;20041;-65
2022/12/07 09:50:54;;;;;;;1.60;0.90;;;;;;;20.04;38.03;101542.19;5029233;28;20045;-64
2022/12/07 09:53:28;;;;;;;1.30;0.98;;;;;;;19.99;38.15;101551.63;5033199;28;20098;-65
2022/12/07 09:55:54;;;;;;;1.42;0.90;;;;;;;19.97;38.29;101556.25;5036438;28;20117;-64
2022/12/07 09:58:28;;;;;;;1.85;1.17;;;;;;;19.99;38.10;101552.44;5031720;28;20081;-64
2022/12/07 10:00:59;;;;;;;2.33;1.00;;;;;;;19.92;38.17;101549.59;5035368;28;20174;-66
2022/12/07 10:03:29;;;;;;;1.50;0.95;;;;;;;19.93;38.31;101542.53;5027870;28;20033;-66
2022/12/07 10:05:55;;;;;;;2.42;1.00;;;;;;;19.89;38.23;101539.38;5044382;28;22086;-65
2022/12/07 10:08:21;;;;;;;1.98;1.23;;;;;;;20.01;38.08;101539.06;5032669;28;20065;-65
2022/12/07 10:10:51;;;;;;;1.15;0.60;;;;;;;20.01;37.98;101533.78;5031522;28;20044;-65
2022/12/07 10:13:35;;;;;;;1.77;1.20;;;;;;;19.96;38.13;101539.56;5040434;28;20491;-65
2022/12/07 10:16:01;;;;;;;1.70;1.10;;;;;;;19.97;38.05;101529.81;5028277;28;20080;-66
2022/12/07 10:18:40;;;;;;;1.80;0.70;;;;;;;20.00;37.88;101524.19;5033372;28;20124;-64
2022/12/07 10:21:17;;;;;;;0.85;0.82;;;;;;;19.99;38.07;101527.81;5031785;28;20992;-65
2022/12/07 10:24:04;;;;;;;1.42;0.82;;;;;;;19.92;38.10;101533.75;5047766;28;20033;-65
2022/12/07 10:26:33;;;;;;;1.52;0.88;;;;;;;19.94;38.02;101536.25;5034580;28;20140;-64
2022/12/07 10:29:14;;;;;;;1.67;1.10;;;;;;;19.88;38.06;101527.13;5029536;28;20072;-64
2022/12/07 10:31:40;;;;;;;2.90;1.00;;;;;;;19.94;38.12;101530.97;5031238;28;20043;-65
2022/12/07 10:34:25;;;;;;;2.97;1.65;;;;;;;19.87;38.19;101528.13;5025975;28;20037;-64
2022/12/07 10:36:53;;;;;;;1.75;0.75;;;;;;;19.92;38.13;101525.81;5035416;28;21413;-65
2022/12/07 10:39:21;;;;;;;2.25;1.10;;;;;;;19.97;38.11;101520.06;5022609;28;20048;-65
2022/12/07 10:42:03;;;;;;;2.38;1.00;;;;;;;19.96;37.97;101523.69;5027264;28;20047;-65
2022/12/07 10:44:33;;;;;;;1.65;1.17;;;;;;;19.94;38.09;101517.75;5025834;28;20037;-65
2022/12/07 10:46:58;;;;;;;1.10;0.80;;;;;;;19.97;38.12;101511.31;5038845;28;20581;-65
2022/12/07 10:49:38;;;;;;;1.92;1.27;;;;;;;19.98;38.04;101508.50;5030883;28;20078;-65
2022/12/07 10:52:13;;;;;;;;;;;;;;;19.98;38.04;101507.66;5033109;28;20041;-65
2022/12/07 10:55:12;;;;;;;1.55;1.17;;;;;;;19.99;37.97;101504.03;5033488;28;19965;-65
2022/12/07 10:57:52;;;;;;;1.67;1.38;;;;;;;19.95;38.01;101503.53;5031642;28;20030;-65
2022/12/07 11:00:43;;;;;;;3.53;1.63;;;;;;;19.90;38.11;101492.59;5032137;28;20048;-65
2022/12/07 11:03:25;;;;;;;1.50;0.82;;;;;;;19.91;38.21;101496.91;5031708;28;20037;-65
2022/12/07 11:06:05;;;;;;;1.58;1.20;;;;;;;19.86;38.15;101501.84;5033733;28;22021;-66
2022/12/07 11:09:00;;;;;;;0.90;0.85;;;;;;;19.97;38.15;101490.16;5038640;28;20123;-68
2022/12/07 11:11:54;;;;;;;2.25;1.02;;;;;;;19.96;38.19;101496.44;5029433;28;20041;-65
2022/12/07 11:14:58;;;;;;;1.92;1.27;;;;;;;20.12;37.75;101491.16;4979051;28;20037;-68
2022/12/07 11:17:36;;;;;;;2.38;1.30;;;;;;;20.40;37.23;101484.50;5032101;28;20109;-70
2022/12/07 11:20:20;;;;;;;2.58;1.20;;;;;;;21.21;35.89;101483.47;5031335;28;20042;-69
2022/12/07 11:22:55;;;;;;;3.45;1.95;;;;;;;22.28;33.82;101481.81;5035638;28;20059;-65
2022/12/07 11:25:42;;;;;;;3.42;1.58;;;;;;;22.74;33.16;101474.50;5032620;28;20041;-68
2022/12/07 11:28:28;;;;;;;2.22;1.40;;;;;;;23.41;32.12;101487.66;5033304;28;20079;-66
2022/12/07 11:31:06;;;;;;;2.80;1.50;;;;;;;24.01;31.33;101491.75;5024132;28;20053;-66
2022/12/07 11:33:41;;;;;;;2.88;1.50;;;;;;;24.43;30.70;101468.78;5029321;28;20029;-66
2022/12/07 11:36:26;;;;;;;2.63;1.45;;;;;;;24.34;30.78;101454.78;5030314;28;20649;-69
2022/12/07 11:38:56;;;;;;;2.78;1.40;;;;;;;24.09;30.96;101458.88;5039330;28;20048;-70
2022/12/07 11:41:32;;;;;;;3.00;1.17;;;;;;;23.97;31.08;101453.25;5035210;28;20665;-68
2022/12/07 11:44:29;;;;;;;1.63;1.00;;;;;;;23.75;31.47;101449.78;5034838;28;20453;-67
2022/12/07 11:47:16;;;;;;;3.30;1.23;;;;;;;23.55;31.88;101446.09;5015035;28;20047;-67
2022/12/07 11:49:44;;;;;;;3.00;1.63;;;;;;;23.22;32.38;101443.06;5034997;28;20034;-68